Time;durP1;ratioP1;P1;durP2;ratioP2;P2;SDS_P1;SDS_P2;PMS_P1;PMS_P2;Temp;Humidity;BMP_temperature;BMP_pressure;BME280_temperature;BME280_humidity;BME280_pressure;Samples;Min_cycle;Max_cycle;Signal;HPM_P1;HPM_P2
2022/05/09 00:02:21;;;;;;;;;13.67;12.33;;;;;17.92;46.93;102212.38;4981699;28;45348;-44
2022/05/09 00:04:47;;;;;;;;;14.67;13.33;;;;;17.88;46.94;102209.97;4981188;28;58270;-44
2022/05/09 00:07:12;;;;;;;;;13.00;12.67;;;;;17.82;46.88;102211.19;4981222;28;52585;-43
2022/05/09 00:09:37;;;;;;;;;13.67;12.67;;;;;17.74;46.99;102210.78;4981075;28;61736;-45
2022/05/09 00:12:03;;;;;;;;;15.33;13.33;;;;;17.68;47.35;102206.63;4980887;28;64135;-43
2022/05/09 00:14:29;;;;;;;;;14.33;14.33;;;;;17.59;47.32;102204.47;4980864;28;45484;-44
2022/05/09 00:16:54;;;;;;;;;10.33;10.33;;;;;17.51;47.31;102207.59;4981027;28;60271;-43
2022/05/09 00:19:23;;;;;;;;;10.33;8.33;;;;;17.43;47.28;102212.53;4970902;28;45262;-43
2022/05/09 00:21:49;;;;;;;;;13.00;10.00;;;;;17.37;47.63;102203.00;4980807;28;45458;-43
2022/05/09 00:24:17;;;;;;;;;15.33;12.67;;;;;17.32;47.51;102211.31;4980643;28;45416;-45
2022/05/09 00:26:43;;;;;;;;;11.00;8.67;;;;;17.26;47.23;102203.63;4981161;28;45591;-44
2022/05/09 00:29:09;;;;;;;;;11.00;9.00;;;;;17.24;47.30;102201.97;4981604;28;47455;-43
2022/05/09 00:31:35;;;;;;;;;14.33;11.33;;;;;17.22;47.49;102198.47;4980993;28;45234;-43
2022/05/09 00:34:00;;;;;;;;;11.00;9.67;;;;;17.17;47.27;102205.00;4981926;28;45350;-44
2022/05/09 00:36:26;;;;;;;;;12.00;10.33;;;;;17.15;47.36;102206.03;4981111;28;45508;-44
2022/05/09 00:38:51;;;;;;;;;10.67;9.67;;;;;17.14;47.52;102205.19;4980333;28;66362;-43
2022/05/09 00:41:31;;;;;;;;;10.33;8.00;;;;;17.14;47.54;102202.47;4980296;28;65877;-44
2022/05/09 00:43:56;;;;;;;;;10.67;7.33;;;;;17.14;47.65;102202.47;4981640;28;45526;-43
2022/05/09 00:46:22;;;;;;;;;7.67;7.67;;;;;17.12;47.31;102195.47;4963977;28;45282;-43
2022/05/09 00:48:48;;;;;;;;;9.00;8.00;;;;;17.09;47.42;102206.34;4980874;28;45518;-42
2022/05/09 00:51:14;;;;;;;;;8.00;7.00;;;;;17.07;46.88;102210.97;4980842;28;45204;-43
2022/05/09 00:53:40;;;;;;;;;8.00;7.33;;;;;17.06;47.02;102203.84;4947686;28;45608;-43
2022/05/09 00:56:07;;;;;;;;;9.00;8.00;;;;;17.06;47.13;102202.03;4966887;28;61114;-43
2022/05/09 00:58:34;;;;;;;;;6.67;6.67;;;;;17.06;46.72;102198.47;4963631;28;45975;-43
2022/05/09 01:01:00;;;;;;;;;8.00;6.00;;;;;17.09;47.20;102203.66;4963413;28;45409;-43
2022/05/09 01:03:37;;;;;;;;;5.67;5.67;;;;;17.11;46.77;102201.78;4981412;28;45455;-43
2022/05/09 01:06:03;;;;;;;;;8.33;8.33;;;;;17.12;46.65;102199.00;4980699;28;45263;-43
2022/05/09 01:08:28;;;;;;;;;5.33;5.33;;;;;17.12;46.57;102196.31;4980491;28;45479;-44
2022/05/09 01:10:53;;;;;;;;;8.67;7.33;;;;;17.13;46.57;102205.22;4947191;28;45289;-43
2022/05/09 01:13:19;;;;;;;;;7.00;6.33;;;;;17.13;46.85;102191.78;4944123;28;45255;-43
2022/05/09 01:15:45;;;;;;;;;11.67;6.33;;;;;17.15;47.00;102197.97;4962479;28;45314;-43
2022/05/09 01:18:11;;;;;;;;;6.67;6.00;;;;;17.13;46.78;102195.38;4963389;28;45356;-43
2022/05/09 01:20:37;;;;;;;;;7.00;7.00;;;;;17.14;46.58;102193.53;4979846;28;45366;-43
2022/05/09 01:23:03;;;;;;;;;10.67;7.00;;;;;17.12;46.80;102200.84;4980578;28;45256;-43
2022/05/09 01:25:29;;;;;;;;;7.00;6.00;;;;;17.09;46.62;102199.19;4962423;28;45518;-43
2022/05/09 01:27:55;;;;;;;;;6.67;5.67;;;;;17.08;46.82;102192.06;4980690;28;46233;-43
2022/05/09 01:30:45;;;;;;;;;6.67;5.67;;;;;17.07;46.64;102189.47;4980375;28;45333;-43
2022/05/09 01:33:16;;;;;;;;;7.33;7.33;;;;;17.05;46.40;102197.59;4947384;28;45262;-43
2022/05/09 01:35:53;;;;;;;;;6.00;6.00;;;;;17.01;46.96;102191.53;4980094;28;45477;-43
2022/05/09 01:38:32;;;;;;;;;7.67;4.67;;;;;17.00;46.95;102197.88;4980040;28;46390;-44
2022/05/09 01:40:58;;;;;;;;;11.00;6.67;;;;;17.00;46.42;102194.28;4963040;28;45403;-43
2022/05/09 01:43:41;;;;;;;;;7.33;7.33;;;;;16.97;46.69;102198.03;4980479;28;45404;-43
2022/05/09 01:46:09;;;;;;;;;8.67;6.67;;;;;16.92;46.93;102194.75;4980430;28;45279;-43
2022/05/09 01:51:18;;;;;;;;;9.00;6.33;;;;;16.85;46.59;102198.66;4979908;28;45432;-43
2022/05/09 01:53:52;;;;;;;;;7.33;5.67;;;;;16.85;46.92;102198.66;4979576;28;52338;-43
2022/05/09 01:56:18;;;;;;;;;7.33;6.33;;;;;16.82;46.61;102188.97;4984277;28;45251;-43
2022/05/09 01:58:43;;;;;;;;;6.00;6.00;;;;;16.81;47.09;102186.34;4979720;28;45404;-43
2022/05/09 02:01:09;;;;;;;;;5.00;5.00;;;;;16.82;46.88;102186.28;4979366;28;61486;-43
2022/05/09 02:03:35;;;;;;;;;9.67;7.33;;;;;16.82;46.97;102190.78;4961645;28;63287;-43
2022/05/09 02:06:01;;;;;;;;;4.67;3.67;;;;;16.79;47.10;102183.75;4979877;28;45373;-43
2022/05/09 02:08:26;;;;;;;;;5.67;5.33;;;;;16.78;46.87;102183.81;4980004;28;47093;-43
2022/05/09 02:10:51;;;;;;;;;9.33;7.33;;;;;16.75;46.84;102187.56;4979502;28;45492;-43
2022/05/09 02:13:17;;;;;;;;;6.67;5.67;;;;;16.74;47.30;102187.63;4979549;28;60506;-43
2022/05/09 02:15:42;;;;;;;;;10.00;7.67;;;;;16.69;46.99;102186.06;4978766;28;61644;-44
2022/05/09 02:18:07;;;;;;;;;7.00;7.00;;;;;16.69;47.00;102187.91;4979537;28;62776;-42
2022/05/09 02:20:33;;;;;;;;;6.00;5.67;;;;;16.67;47.21;102181.72;4978456;28;60023;-43
2022/05/09 02:22:59;;;;;;;;;6.00;6.00;;;;;16.65;47.17;102176.44;4979954;28;45358;-42
2022/05/09 02:25:29;;;;;;;;;7.00;5.67;;;;;16.62;47.23;102179.31;4979004;28;57120;-43
2022/05/09 02:27:58;;;;;;;;;5.00;5.00;;;;;16.60;47.41;102181.19;4979991;28;46964;-43
2022/05/09 02:30:23;;;;;;;;;5.00;5.00;;;;;16.59;47.03;102176.75;4979768;28;45453;-43
2022/05/09 02:32:49;;;;;;;;;6.67;6.67;;;;;16.57;47.32;102192.09;4979175;28;50055;-44
2022/05/09 02:35:15;;;;;;;;;7.00;7.00;;;;;16.56;47.60;102187.69;4979201;28;45318;-44
2022/05/09 02:37:41;;;;;;;;;4.67;4.67;;;;;16.56;47.50;102190.38;4978501;28;46062;-44
2022/05/09 02:40:07;;;;;;;;;10.33;7.67;;;;;16.53;47.73;102190.50;4979444;28;45342;-43
2022/05/09 02:42:34;;;;;;;;;12.67;11.00;;;;;16.51;48.08;102187.06;4979323;28;45652;-43
2022/05/09 02:45:00;;;;;;;;;12.00;11.33;;;;;16.49;48.04;102186.25;4979477;28;45293;-43
2022/05/09 02:47:26;;;;;;;;;12.33;10.33;;;;;16.49;48.15;102188.94;4979456;28;45484;-44
2022/05/09 02:49:52;;;;;;;;;15.00;13.00;;;;;16.46;48.17;102181.91;4978912;28;45601;-43
2022/05/09 02:52:18;;;;;;;;;16.00;14.00;;;;;16.45;48.54;102173.94;4979343;28;45331;-42
2022/05/09 02:54:44;;;;;;;;;11.67;11.67;;;;;16.42;48.30;102177.66;4978178;28;61089;-44
2022/05/09 02:57:09;;;;;;;;;12.33;12.33;;;;;16.37;48.50;102174.34;4978639;28;45377;-43
2022/05/09 02:59:35;;;;;;;;;10.67;10.67;;;;;16.33;48.83;102173.63;4978060;28;45229;-43
2022/05/09 03:02:01;;;;;;;;;10.00;10.00;;;;;16.32;48.76;102174.63;4976151;28;56175;-43
2022/05/09 03:04:39;;;;;;;;;13.67;11.67;;;;;16.26;49.21;102171.38;4979384;28;45481;-44
2022/05/09 03:07:12;;;;;;;;;12.33;12.33;;;;;16.21;49.15;102169.78;4978766;28;45563;-44
2022/05/09 03:09:38;;;;;;;;;11.67;9.67;;;;;16.19;49.32;102166.34;4978959;28;45466;-42
2022/05/09 03:12:07;;;;;;;;;10.33;9.33;;;;;16.17;49.12;102168.22;4979280;28;45407;-43
2022/05/09 03:14:33;;;;;;;;;11.67;9.33;;;;;16.17;48.93;102176.25;4978979;28;45299;-44
2022/05/09 03:16:58;;;;;;;;;15.33;12.00;;;;;16.17;49.25;102170.03;4978977;28;45792;-43
2022/05/09 03:19:26;;;;;;;;;12.33;11.33;;;;;16.14;49.36;102168.38;4978312;28;67568;-43
2022/05/09 03:21:52;;;;;;;;;14.67;12.00;;;;;16.10;49.30;102171.28;4978299;28;45307;-43
2022/05/09 03:24:18;;;;;;;;;13.67;12.00;;;;;16.10;49.18;102165.94;4978950;28;45612;-42
2022/05/09 03:26:43;;;;;;;;;14.00;13.67;;;;;16.07;49.32;102172.31;4978172;28;55097;-44
2022/05/09 03:29:09;;;;;;;;;12.67;12.67;;;;;16.07;49.48;102171.47;4961619;28;45354;-43
2022/05/09 03:31:34;;;;;;;;;15.67;13.67;;;;;16.03;49.96;102165.38;4978651;28;45476;-43
2022/05/09 03:34:00;;;;;;;;;12.67;12.00;;;;;16.00;49.75;102169.09;4978431;28;63210;-45
2022/05/09 03:36:25;;;;;;;;;12.67;11.00;;;;;15.99;49.96;102169.19;4978239;28;46056;-43
2022/05/09 03:38:51;;;;;;;;;12.67;10.00;;;;;15.96;49.72;102167.50;4977170;28;45368;-42
2022/05/09 03:41:16;;;;;;;;;10.67;8.67;;;;;15.95;49.88;102176.50;4978722;28;46629;-44
2022/05/09 03:43:41;;;;;;;;;11.00;11.00;;;;;15.91;49.81;102171.38;4978594;28;45783;-43
2022/05/09 03:46:07;;;;;;;;;11.33;9.33;;;;;15.87;49.83;102174.22;4978659;28;45330;-43
2022/05/09 03:48:32;;;;;;;;;16.00;11.67;;;;;15.86;50.13;102175.16;4981146;28;45379;-43
2022/05/09 03:50:58;;;;;;;;;13.50;12.00;;;;;15.86;50.10;102171.59;4981452;28;58292;-43
2022/05/09 03:53:24;;;;;;;;;15.67;11.00;;;;;15.86;50.39;102168.94;4982012;28;45338;-43
2022/05/09 03:55:50;;;;;;;;;10.00;10.00;;;;;15.83;50.41;102167.25;4985368;28;47070;-44
2022/05/09 03:58:16;;;;;;;;;14.00;13.00;;;;;15.81;50.13;102168.28;4982309;28;45512;-43
2022/05/09 04:00:41;;;;;;;;;12.00;10.00;;;;;15.78;50.18;102169.28;4981316;28;46303;-43
2022/05/09 04:03:06;;;;;;;;;13.00;13.00;;;;;15.76;50.12;102159.56;4982506;28;45314;-43
2022/05/09 04:05:32;;;;;;;;;14.67;10.67;;;;;15.76;50.16;102167.63;4980646;28;61795;-43
2022/05/09 04:07:59;;;;;;;;;12.33;11.67;;;;;15.70;50.43;102161.63;4982424;28;45325;-43
2022/05/09 04:10:26;;;;;;;;;12.67;11.33;;;;;15.68;50.29;102157.28;4982016;28;45402;-43
2022/05/09 04:12:52;;;;;;;;;13.00;11.33;;;;;15.66;50.18;102170.75;4981730;28;45500;-43
2022/05/09 04:18:01;;;;;;;;;13.00;10.00;;;;;15.61;50.38;102170.13;4981880;28;45417;-42
2022/05/09 04:20:29;;;;;;;;;14.00;11.00;;;;;15.60;50.52;102163.03;4981269;28;45433;-43
2022/05/09 04:22:56;;;;;;;;;13.67;13.33;;;;;15.58;50.73;102159.56;4981895;28;45436;-44
2022/05/09 04:25:22;;;;;;;;;13.67;12.33;;;;;15.58;50.54;102164.94;4980889;28;46381;-42
2022/05/09 04:27:48;;;;;;;;;11.33;11.33;;;;;15.57;50.52;102162.31;4981229;28;45433;-43
2022/05/09 04:30:16;;;;;;;;;13.67;12.67;;;;;15.54;50.59;102158.84;4981414;28;45291;-43
2022/05/09 04:32:41;;;;;;;;;13.00;11.00;;;;;15.53;50.90;102157.09;4963891;28;45413;-43
2022/05/09 04:35:11;;;;;;;;;17.33;12.33;;;;;15.53;50.87;102165.13;4980352;28;64922;-43
2022/05/09 04:37:37;;;;;;;;;15.67;13.33;;;;;15.53;50.66;102167.81;4980914;28;45294;-43
2022/05/09 04:40:04;;;;;;;;;14.00;11.67;;;;;15.51;50.88;102161.69;4981324;28;45250;-43
2022/05/09 04:42:29;;;;;;;;;10.00;10.00;;;;;15.48;51.08;102169.84;4963558;28;45530;-43
2022/05/09 04:44:54;;;;;;;;;12.00;12.00;;;;;15.47;51.10;102160.06;4980458;28;68447;-43
2022/05/09 04:47:20;;;;;;;;;14.67;12.00;;;;;15.48;50.64;102171.69;4981108;28;45660;-42
2022/05/09 04:49:45;;;;;;;;;14.67;12.33;;;;;15.46;50.89;102174.44;4980857;28;46006;-44
2022/05/09 04:52:11;;;;;;;;;14.33;13.33;;;;;15.46;51.21;102173.56;4980408;28;61705;-43
2022/05/09 04:54:36;;;;;;;;;11.00;11.00;;;;;15.46;51.05;102173.56;4974118;28;46075;-43
2022/05/09 04:57:02;;;;;;;;;15.67;11.00;;;;;15.44;51.06;102165.59;4976610;28;64322;-43
2022/05/09 04:59:27;;;;;;;;;12.00;12.00;;;;;15.39;50.91;102170.31;4979155;28;45614;-42
2022/05/09 05:01:52;;;;;;;;;16.33;15.33;;;;;15.36;50.86;102171.34;4963444;28;45435;-44
2022/05/09 05:04:18;;;;;;;;;14.00;14.00;;;;;15.35;51.00;102171.41;4980102;28;65603;-43
2022/05/09 05:06:44;;;;;;;;;16.67;14.67;;;;;15.36;51.28;102174.00;4979624;28;45438;-43
2022/05/09 05:09:10;;;;;;;;;7.00;6.33;;;;;15.38;51.45;102172.13;4981038;28;45509;-43
2022/05/09 05:11:35;;;;;;;;;14.00;14.00;;;;;15.41;51.41;102172.91;4979683;28;45639;-43
2022/05/09 05:14:00;;;;;;;;;15.00;13.67;;;;;15.39;51.24;102173.00;4980680;28;46126;-43
2022/05/09 05:16:59;;;;;;;;;16.33;14.00;;;;;15.41;51.60;102170.22;4979873;28;45276;-43
2022/05/09 05:19:11;;;;;;;;;14.33;13.33;;;;;15.41;51.28;102175.59;4968837;28;45549;-42
2022/05/09 05:21:36;;;;;;;;;13.67;11.00;;;;;15.41;51.09;102171.13;4979162;28;61524;-43
2022/05/09 05:24:02;;;;;;;;;13.00;12.00;;;;;15.44;51.20;102175.47;4978842;28;66511;-44
2022/05/09 05:26:27;;;;;;;;;11.00;11.00;;;;;15.46;51.51;102178.91;4979760;28;66119;-43
2022/05/09 05:28:53;;;;;;;;;19.67;16.00;;;;;15.46;51.23;102176.25;4979937;28;59729;-45
2022/05/09 05:31:18;;;;;;;;;18.33;16.00;;;;;15.43;51.09;102171.91;4980410;28;45247;-44
2022/05/09 05:33:44;;;;;;;;;15.67;14.00;;;;;15.43;51.65;102169.22;4979837;28;46259;-44
2022/05/09 05:36:09;;;;;;;;;18.00;13.33;;;;;15.43;51.29;102173.72;4980379;28;45337;-43
2022/05/09 05:38:35;;;;;;;;;17.00;14.67;;;;;15.43;51.44;102173.72;4979855;28;45342;-43
2022/05/09 05:41:00;;;;;;;;;16.33;13.00;;;;;15.43;51.32;102179.09;4977454;28;45548;-44
2022/05/09 05:43:26;;;;;;;;;22.67;16.67;;;;;15.45;51.32;102182.53;4970107;28;45421;-43
2022/05/09 05:45:55;;;;;;;;;14.67;13.67;;;;;15.48;51.44;102179.72;4970702;28;64273;-43
2022/05/09 05:48:20;;;;;;;;;17.00;16.00;;;;;15.48;51.72;102177.03;4977230;28;45308;-44
2022/05/09 05:50:46;;;;;;;;;13.67;13.67;;;;;15.50;51.32;102177.81;4978839;28;56599;-43
2022/05/09 05:53:11;;;;;;;;;18.67;17.00;;;;;15.53;51.38;102177.69;4978988;28;62743;-44
2022/05/09 05:55:37;;;;;;;;;21.00;16.00;;;;;15.53;51.54;102180.38;4982784;28;65629;-45
2022/05/09 05:58:02;;;;;;;;;20.00;17.00;;;;;15.53;51.46;102185.72;4979105;28;60929;-43
2022/05/09 06:00:28;;;;;;;;;16.67;14.33;;;;;15.53;51.56;102177.69;4978182;28;45460;-43
2022/05/09 06:02:53;;;;;;;;;14.33;11.67;;;;;15.57;51.54;102186.47;4978943;28;46055;-44
2022/05/09 06:05:19;;;;;;;;;17.00;16.33;;;;;15.62;51.16;102195.13;4971932;28;64208;-43
2022/05/09 06:07:46;;;;;;;;;20.33;17.00;;;;;15.67;51.53;102185.91;4981502;28;45333;-45
2022/05/09 06:10:12;;;;;;;;;17.67;17.67;;;;;15.74;51.53;102194.53;4976093;28;45575;-43
2022/05/09 06:12:38;;;;;;;;;19.33;17.00;;;;;15.81;51.49;102197.81;4978471;28;46825;-41
2022/05/09 06:17:48;;;;;;;;;20.67;20.33;;;;;15.96;51.14;102198.84;4967481;28;45391;-43
2022/05/09 06:20:13;;;;;;;;;19.00;18.33;;;;;16.01;51.25;102194.97;4978021;28;63540;-43
2022/05/09 06:22:39;;;;;;;;;20.00;18.33;;;;;16.10;50.46;102196.34;4979240;28;45359;-43
2022/05/09 06:25:06;;;;;;;;;18.00;17.33;;;;;16.18;50.67;102198.63;4977924;28;65893;-47
2022/05/09 06:27:32;;;;;;;;;21.67;19.67;;;;;16.28;50.63;102194.53;4978704;28;45287;-43
2022/05/09 06:29:59;;;;;;;;;28.00;22.00;;;;;16.35;50.32;102190.56;4979607;28;45498;-42
2022/05/09 06:32:25;;;;;;;;;28.33;26.00;;;;;16.44;50.33;102197.25;4961398;28;48800;-42
2022/05/09 06:34:51;;;;;;;;;30.33;22.67;;;;;16.56;49.92;102200.22;4978616;28;45310;-43
2022/05/09 06:37:16;;;;;;;;;25.67;22.67;;;;;16.68;50.16;102211.19;4978400;28;45504;-43
2022/05/09 06:39:42;;;;;;;;;21.33;20.33;;;;;16.82;49.87;102196.16;4978407;28;45298;-43
2022/05/09 06:42:08;;;;;;;;;24.67;20.00;;;;;16.96;49.51;102201.69;4974814;28;45457;-44
2022/05/09 06:44:35;;;;;;;;;21.00;19.33;;;;;17.11;49.45;102191.88;4978626;28;45404;-43
2022/05/09 06:47:01;;;;;;;;;30.33;22.33;;;;;17.30;48.95;102199.78;4977500;28;45515;-44
2022/05/09 06:49:27;;;;;;;;;26.33;19.67;;;;;17.47;48.53;102196.16;4971546;28;45599;-43
2022/05/09 06:51:52;;;;;;;;;32.33;21.00;;;;;17.63;48.15;102209.56;4977782;28;47257;-41
2022/05/09 06:54:21;;;;;;;;;23.00;21.33;;;;;17.79;48.27;102209.53;4978457;28;45365;-42
2022/05/09 06:56:48;;;;;;;;;28.00;21.33;;;;;17.97;48.13;102206.78;4978513;28;45351;-41
2022/05/09 06:59:14;;;;;;;;;21.00;19.00;;;;;18.14;47.77;102205.78;4961269;28;45590;-42
2022/05/09 07:01:39;;;;;;;;;23.00;21.33;;;;;18.31;47.37;102202.91;4960238;28;46884;-43
2022/05/09 07:04:05;;;;;;;;;23.67;20.33;;;;;18.54;47.00;102208.72;4977699;28;64819;-42
2022/05/09 07:06:30;;;;;;;;;24.67;20.00;;;;;18.71;46.31;102210.38;4965655;28;45444;-42
2022/05/09 07:08:56;;;;;;;;;28.33;23.33;;;;;18.84;46.28;102207.78;4977734;28;45493;-43
2022/05/09 07:11:21;;;;;;;;;26.33;20.67;;;;;18.97;45.81;102206.06;4977556;28;65413;-42
2022/05/09 07:13:47;;;;;;;;;24.00;22.00;;;;;19.12;45.78;102206.06;4977251;28;64193;-41
2022/05/09 07:16:13;;;;;;;;;23.33;20.00;;;;;19.26;45.39;102210.56;4978890;28;45465;-42
2022/05/09 07:18:38;;;;;;;;;28.00;22.33;;;;;19.45;45.22;102204.81;4978072;28;45420;-45
2022/05/09 07:21:05;;;;;;;;;24.00;21.33;;;;;19.65;44.93;102206.22;4977940;28;46079;-43
2022/05/09 07:23:30;;;;;;;;;20.00;17.67;;;;;19.83;44.69;102210.41;4975133;28;45879;-44
2022/05/09 07:25:56;;;;;;;;;21.33;18.33;;;;;20.02;44.48;102211.00;4981113;28;45579;-41
2022/05/09 07:28:21;;;;;;;;;33.33;26.00;;;;;20.21;44.09;102211.47;4979471;28;60079;-42
2022/05/09 07:30:47;;;;;;;;;18.33;16.67;;;;;20.44;43.31;102214.41;4977869;28;45929;-42
2022/05/09 07:33:17;;;;;;;;;24.67;18.67;;;;;20.59;43.21;102213.34;4979709;28;45387;-41
2022/05/09 07:35:43;;;;;;;;;19.00;15.33;;;;;20.76;43.14;102204.06;4971096;28;45869;-42
2022/05/09 07:38:09;;;;;;;;;20.33;16.67;;;;;20.93;42.76;102204.69;4976949;28;45301;-43
2022/05/09 07:40:34;;;;;;;;;16.67;14.33;;;;;21.07;42.89;102203.72;4979788;28;46172;-42
2022/05/09 07:43:00;;;;;;;;;17.67;15.67;;;;;21.20;41.97;102192.84;4978809;28;45540;-41
2022/05/09 07:45:25;;;;;;;;;17.00;15.00;;;;;21.36;41.86;102195.28;4981593;28;45694;-43
2022/05/09 07:47:50;;;;;;;;;17.00;17.00;;;;;21.51;41.41;102195.97;4980714;28;50590;-42
2022/05/09 07:50:17;;;;;;;;;21.33;17.33;;;;;21.66;41.41;102188.59;4977927;28;64775;-42
2022/05/09 07:52:42;;;;;;;;;20.67;15.00;;;;;21.85;41.08;102196.16;4980551;28;45360;-43
2022/05/09 07:55:11;;;;;;;;;23.33;17.67;;;;;22.04;41.12;102191.06;4974331;28;45255;-42
2022/05/09 07:57:36;;;;;;;;;20.00;19.33;;;;;22.24;40.60;102186.81;4980161;28;45511;-42
2022/05/09 08:00:02;;;;;;;;;17.00;12.00;;;;;22.45;39.58;102181.59;4980457;28;66441;-42
2022/05/09 08:02:28;;;;;;;;;19.33;15.33;;;;;22.59;39.37;102179.63;4980625;28;45338;-41
2022/05/09 08:04:53;;;;;;;;;15.33;13.33;;;;;22.80;39.71;102182.44;4980645;28;57244;-42
2022/05/09 08:07:19;;;;;;;;;17.00;14.67;;;;;23.04;39.08;102189.63;4981505;28;45231;-42
2022/05/09 08:09:45;;;;;;;;;16.00;15.67;;;;;23.29;39.11;102186.63;4980819;28;46358;-42
2022/05/09 08:12:10;;;;;;;;;20.67;15.00;;;;;23.62;38.77;102183.94;4980790;28;59936;-41
2022/05/09 08:14:36;;;;;;;;;16.67;14.00;;;;;23.94;38.84;102185.81;4963398;28;45286;-42
2022/05/09 08:17:02;;;;;;;;;18.33;15.00;;;;;24.23;37.87;102188.72;4980972;28;47079;-41
2022/05/09 08:19:29;;;;;;;;;16.00;14.00;;;;;24.69;37.43;102191.16;4974423;28;47030;-42
2022/05/09 08:21:55;;;;;;;;;21.33;16.67;;;;;25.26;36.77;102186.91;4975895;28;45406;-41
2022/05/09 08:24:22;;;;;;;;;18.00;16.67;;;;;25.82;35.56;102184.56;4980061;28;45421;-42
2022/05/09 08:26:48;;;;;;;;;16.67;14.67;;;;;26.34;34.91;102189.69;4977174;28;45346;-43
2022/05/09 08:29:13;;;;;;;;;15.67;15.00;;;;;26.79;34.67;102188.13;4977412;28;48738;-43
2022/05/09 08:31:38;;;;;;;;;16.33;13.67;;;;;27.23;33.93;102188.31;4978312;28;56683;-44
2022/05/09 08:34:04;;;;;;;;;19.33;15.00;;;;;27.59;33.09;102183.91;4975062;28;46080;-42
2022/05/09 08:39:13;;;;;;;;;16.67;15.33;;;;;27.95;32.52;102189.38;4971719;28;45640;-43
2022/05/09 08:41:47;;;;;;;;;15.33;13.33;;;;;28.09;31.98;102190.72;4970268;28;45587;-42
2022/05/09 08:44:40;;;;;;;;;17.00;14.33;;;;;28.27;32.76;102190.69;4972897;28;45384;-42
2022/05/09 08:47:18;;;;;;;;;13.67;10.67;;;;;28.34;31.30;102186.25;4961894;28;45381;-41
2022/05/09 08:50:04;;;;;;;;;13.33;13.33;;;;;28.42;31.53;102193.66;4968903;28;46275;-45
2022/05/09 08:52:39;;;;;;;;;17.00;16.33;;;;;28.54;32.01;102190.50;4947441;28;45416;-42
2022/05/09 08:55:05;;;;;;;;;18.67;15.00;;;;;28.59;31.25;102183.66;4963616;28;45501;-42
2022/05/09 08:57:39;;;;;;;;;20.67;14.67;;;;;28.63;31.07;102179.56;4961418;28;45500;-42
2022/05/09 09:00:10;;;;;;;;;19.33;18.00;;;;;28.66;30.77;102179.31;4945750;28;45537;-43
2022/05/09 09:03:00;;;;;;;;;19.00;15.67;;;;;28.78;30.78;102188.94;4980020;28;45230;-42
2022/05/09 09:05:26;;;;;;;;;21.67;18.33;;;;;28.92;31.33;102172.91;4980454;28;45291;-42
2022/05/09 09:08:37;;;;;;;;;15.33;13.33;;;;;29.00;31.04;102173.78;4962532;28;45436;-44
2022/05/09 09:11:13;;;;;;;;;18.67;16.67;;;;;28.98;30.85;102166.75;4891056;28;45949;-42
2022/05/09 09:13:57;;;;;;;;;15.00;15.00;;;;;28.92;30.19;102167.44;4962139;28;45345;-44
2022/05/09 09:16:57;;;;;;;;;17.33;14.67;;;;;28.93;30.31;102166.41;4948553;28;45402;-42
2022/05/09 09:20:05;;;;;;;;;17.33;14.33;;;;;28.97;30.49;102167.78;4965617;28;45314;-43
2022/05/09 09:22:43;;;;;;;;;13.67;13.67;;;;;29.08;30.50;102162.00;4971849;28;45356;-43
2022/05/09 09:25:26;;;;;;;;;17.67;14.33;;;;;29.21;30.35;102164.28;4979802;28;45478;-41
2022/05/09 09:28:02;;;;;;;;;16.33;14.33;;;;;29.20;29.82;102163.41;4962536;28;45428;-41
2022/05/09 09:30:29;;;;;;;;;15.67;15.00;;;;;29.21;30.08;102170.59;4980021;28;45761;-42
2022/05/09 09:33:04;;;;;;;;;19.00;17.33;;;;;29.16;29.17;102161.16;4979748;28;47125;-42
2022/05/09 09:35:35;;;;;;;;;20.67;17.67;;;;;29.10;29.71;102165.44;4979492;28;45726;-42
2022/05/09 09:38:05;;;;;;;;;17.33;16.33;;;;;29.16;30.06;102169.38;4957309;28;45456;-42
2022/05/09 09:40:31;;;;;;;;;23.00;16.33;;;;;29.26;29.74;102172.00;4960465;28;45428;-42
2022/05/09 09:42:56;;;;;;;;;15.67;13.67;;;;;29.43;29.36;102165.53;4979700;28;46164;-44
2022/05/09 09:45:25;;;;;;;;;15.67;14.33;;;;;29.65;29.16;102160.44;4979638;28;45453;-43
2022/05/09 09:48:07;;;;;;;;;22.00;20.00;;;;;29.85;28.88;102170.00;4961879;28;45438;-43
2022/05/09 09:50:32;;;;;;;;;19.33;16.67;;;;;30.02;29.16;102161.81;4961607;28;45552;-44
2022/05/09 09:52:58;;;;;;;;;20.67;15.33;;;;;30.15;28.79;102164.03;4961435;28;45950;-42
2022/05/09 09:55:29;;;;;;;;;16.33;13.33;;;;;30.29;27.78;102163.31;4978793;28;46069;-44
2022/05/09 09:57:55;;;;;;;;;15.00;13.00;;;;;30.43;28.51;102148.00;4979807;28;45384;-46
2022/05/09 10:00:25;;;;;;;;;15.67;13.00;;;;;30.63;28.37;102148.47;4979279;28;45389;-42
2022/05/09 10:02:51;;;;;;;;;17.33;14.33;;;;;30.81;27.88;102144.63;4978823;28;46012;-42
2022/05/09 10:05:18;;;;;;;;;18.00;15.00;;;;;30.98;27.81;102143.50;4979010;28;45259;-44
2022/05/09 10:07:44;;;;;;;;;19.00;15.67;;;;;31.12;27.11;102149.28;4975962;28;45552;-43
2022/05/09 10:10:12;;;;;;;;;18.67;13.67;;;;;31.17;26.74;102138.63;4944390;28;45536;-44
2022/05/09 10:12:44;;;;;;;;;14.67;13.00;;;;;31.28;27.23;102140.09;4978651;28;45968;-45
2022/05/09 10:15:23;;;;;;;;;17.33;15.33;;;;;31.26;27.28;102131.19;4974689;28;45555;-44
2022/05/09 10:17:49;;;;;;;;;15.67;15.67;;;;;31.35;27.31;102132.81;4978675;28;45372;-43
2022/05/09 10:20:37;;;;;;;;;12.67;12.00;;;;;31.47;26.83;102123.13;4978502;28;45365;-44
2022/05/09 10:26:25;;;;;;;;;13.00;12.00;;;;;31.85;26.28;102130.56;4962024;28;45505;-45
2022/05/09 10:28:59;;;;;;;;;14.67;13.00;;;;;32.04;25.71;102131.91;4960777;28;45689;-44
2022/05/09 10:31:28;;;;;;;;;14.67;12.33;;;;;32.16;25.87;102127.66;4964042;28;45386;-43
2022/05/09 10:33:59;;;;;;;;;15.00;14.33;;;;;32.41;25.52;102129.28;4977903;28;45390;-43
2022/05/09 10:36:29;;;;;;;;;13.67;13.33;;;;;32.74;25.54;102131.69;4955067;28;45526;-45
2022/05/09 10:39:00;;;;;;;;;13.67;13.00;;;;;33.11;25.26;102121.50;4935955;28;45571;-43
2022/05/09 10:41:33;;;;;;;;;13.33;13.33;;;;;33.38;24.85;102125.44;4973174;28;45631;-43
2022/05/09 10:44:02;;;;;;;;;13.33;11.33;;;;;33.59;24.46;102112.69;4955677;28;46289;-46
2022/05/09 10:46:49;;;;;;;;;15.33;13.33;;;;;34.03;24.44;102121.72;4973645;28;45338;-43
2022/05/09 10:49:26;;;;;;;;;17.67;14.67;;;;;34.43;23.79;102113.72;4978358;28;45405;-45
2022/05/09 10:52:13;;;;;;;;;12.33;12.00;;;;;34.99;23.29;102120.97;4973457;28;45330;-45
2022/05/09 10:54:44;;;;;;;;;14.67;10.67;;;;;35.47;22.96;102113.66;4978611;28;46168;-43
2022/05/09 10:57:31;;;;;;;;;13.67;12.67;;;;;36.01;22.78;102109.81;4970639;28;45487;-44
2022/05/09 11:00:20;;;;;;;;;17.67;12.33;;;;;36.70;21.70;102106.59;4963005;28;45479;-45
2022/05/09 11:03:08;;;;;;;;;11.00;10.67;;;;;37.19;20.64;102105.06;4960190;28;45433;-43
2022/05/09 11:05:51;;;;;;;;;11.00;11.00;;;;;37.75;20.71;102113.59;4959727;28;45374;-45
2022/05/09 11:08:37;;;;;;;;;13.00;11.33;;;;;38.19;19.24;102105.28;4976649;28;45445;-49
2022/05/09 11:11:25;;;;;;;;;11.33;10.33;;;;;38.46;19.58;102104.97;4977254;28;45976;-45
2022/05/09 11:14:34;;;;;;;;;9.00;9.00;;;;;38.80;19.25;102100.72;4955115;28;45508;-44
2022/05/09 11:17:08;;;;;;;;;13.00;11.67;;;;;39.19;18.71;102098.44;4932022;28;45504;-46
2022/05/09 11:19:52;;;;;;;;;19.00;16.67;;;;;39.51;18.83;102105.63;4977171;28;45630;-44
2022/05/09 11:22:38;;;;;;;;;13.00;10.00;;;;;39.88;18.43;102097.06;4978364;28;45275;-45
2022/05/09 11:25:22;;;;;;;;;13.67;13.67;;;;;40.17;17.92;102094.41;4938516;28;45436;-44
2022/05/09 11:28:04;;;;;;;;;13.00;11.67;;;;;40.16;17.59;102093.53;4975891;28;46205;-44
2022/05/09 11:30:55;;;;;;;;;18.33;12.67;;;;;40.13;17.59;102093.19;4981213;28;45361;-43
2022/05/09 11:33:45;;;;;;;;;15.00;13.00;;;;;40.40;17.24;102092.63;4937809;28;45414;-46
2022/05/09 11:36:59;;;;;;;;;13.00;11.33;;;;;40.63;17.32;102086.16;4973655;28;45418;-44